sensor_id;sensor_type;location;lat;lon;timestamp;temperature;humidity
67502;SHT30;54349;52.528;19.760;2023-02-28T00:01:33;22.43;39.23
67502;SHT30;54349;52.528;19.760;2023-02-28T00:04:01;22.43;39.23
67502;SHT30;54349;52.528;19.760;2023-02-28T00:06:30;22.43;39.20
67502;SHT30;54349;52.528;19.760;2023-02-28T00:08:58;22.45;39.22
67502;SHT30;54349;52.528;19.760;2023-02-28T00:11:26;22.44;39.21
67502;SHT30;54349;52.528;19.760;2023-02-28T00:13:55;22.45;39.22
67502;SHT30;54349;52.528;19.760;2023-02-28T00:16:23;22.45;39.24
67502;SHT30;54349;52.528;19.760;2023-02-28T00:18:51;22.45;39.20
67502;SHT30;54349;52.528;19.760;2023-02-28T00:21:20;22.46;39.19
67502;SHT30;54349;52.528;19.760;2023-02-28T00:23:48;22.47;39.13
67502;SHT30;54349;52.528;19.760;2023-02-28T00:26:16;22.47;39.14
67502;SHT30;54349;52.528;19.760;2023-02-28T00:28:48;22.47;39.12
67502;SHT30;54349;52.528;19.760;2023-02-28T00:31:17;22.47;39.17
67502;SHT30;54349;52.528;19.760;2023-02-28T00:33:45;22.47;39.18
67502;SHT30;54349;52.528;19.760;2023-02-28T00:36:14;22.48;39.15
67502;SHT30;54349;52.528;19.760;2023-02-28T00:38:43;22.49;39.11
67502;SHT30;54349;52.528;19.760;2023-02-28T00:41:11;22.50;39.10
67502;SHT30;54349;52.528;19.760;2023-02-28T00:43:39;22.49;39.11
67502;SHT30;54349;52.528;19.760;2023-02-28T00:46:07;22.49;39.07
67502;SHT30;54349;52.528;19.760;2023-02-28T00:48:36;22.50;39.02
67502;SHT30;54349;52.528;19.760;2023-02-28T00:51:04;22.50;39.01
67502;SHT30;54349;52.528;19.760;2023-02-28T00:53:33;22.50;39.01
67502;SHT30;54349;52.528;19.760;2023-02-28T00:56:02;22.51;39.00
67502;SHT30;54349;52.528;19.760;2023-02-28T00:58:31;22.51;38.99
67502;SHT30;54349;52.528;19.760;2023-02-28T01:00:59;22.51;38.98
67502;SHT30;54349;52.528;19.760;2023-02-28T01:03:28;22.52;38.99
67502;SHT30;54349;52.528;19.760;2023-02-28T01:05:56;22.53;39.00
67502;SHT30;54349;52.528;19.760;2023-02-28T01:08:25;22.52;38.82
67502;SHT30;54349;52.528;19.760;2023-02-28T01:10:54;22.50;38.70
67502;SHT30;54349;52.528;19.760;2023-02-28T01:13:23;22.46;38.58
67502;SHT30;54349;52.528;19.760;2023-02-28T01:15:54;22.41;38.46
67502;SHT30;54349;52.528;19.760;2023-02-28T01:18:24;22.37;38.39
67502;SHT30;54349;52.528;19.760;2023-02-28T01:20:53;22.34;38.29
67502;SHT30;54349;52.528;19.760;2023-02-28T01:23:22;22.29;38.21
67502;SHT30;54349;52.528;19.760;2023-02-28T01:25:51;22.24;38.11
67502;SHT30;54349;52.528;19.760;2023-02-28T01:28:20;22.22;38.08
67502;SHT30;54349;52.528;19.760;2023-02-28T01:30:50;22.18;38.01
67502;SHT30;54349;52.528;19.760;2023-02-28T01:33:19;22.14;37.94
67502;SHT30;54349;52.528;19.760;2023-02-28T01:35:47;22.10;37.86
67502;SHT30;54349;52.528;19.760;2023-02-28T01:38:16;22.07;37.80
67502;SHT30;54349;52.528;19.760;2023-02-28T01:40:49;22.03;37.73
67502;SHT30;54349;52.528;19.760;2023-02-28T01:43:20;21.99;37.68
67502;SHT30;54349;52.528;19.760;2023-02-28T01:45:56;21.96;37.64
67502;SHT30;54349;52.528;19.760;2023-02-28T01:48:27;21.93;37.62
67502;SHT30;54349;52.528;19.760;2023-02-28T01:51:03;21.88;37.57
67502;SHT30;54349;52.528;19.760;2023-02-28T01:53:41;21.85;37.50
67502;SHT30;54349;52.528;19.760;2023-02-28T01:56:16;21.82;37.47
67502;SHT30;54349;52.528;19.760;2023-02-28T01:58:52;21.79;37.44
67502;SHT30;54349;52.528;19.760;2023-02-28T02:01:23;21.75;37.41
67502;SHT30;54349;52.528;19.760;2023-02-28T02:03:56;21.72;37.40
67502;SHT30;54349;52.528;19.760;2023-02-28T02:06:30;21.69;37.35
67502;SHT30;54349;52.528;19.760;2023-02-28T02:09:07;21.65;37.30
67502;SHT30;54349;52.528;19.760;2023-02-28T02:11:35;21.63;37.30
67502;SHT30;54349;52.528;19.760;2023-02-28T02:14:18;21.59;37.25
67502;SHT30;54349;52.528;19.760;2023-02-28T02:17:10;21.56;37.21
67502;SHT30;54349;52.528;19.760;2023-02-28T02:23:30;21.49;37.12
67502;SHT30;54349;52.528;19.760;2023-02-28T02:27:03;21.47;37.11
67502;SHT30;54349;52.528;19.760;2023-02-28T02:38:53;21.33;37.00
67502;SHT30;54349;52.528;19.760;2023-02-28T02:41:34;21.31;36.95
67502;SHT30;54349;52.528;19.760;2023-02-28T02:47:03;21.26;36.92
67502;SHT30;54349;52.528;19.760;2023-02-28T02:49:46;21.23;36.90
67502;SHT30;54349;52.528;19.760;2023-02-28T02:52:22;21.22;36.88
67502;SHT30;54349;52.528;19.760;2023-02-28T02:54:57;21.18;36.86
67502;SHT30;54349;52.528;19.760;2023-02-28T02:57:32;21.16;36.86
67502;SHT30;54349;52.528;19.760;2023-02-28T03:00:08;21.13;36.82
67502;SHT30;54349;52.528;19.760;2023-02-28T03:02:38;21.10;36.81
67502;SHT30;54349;52.528;19.760;2023-02-28T03:05:54;21.08;36.80
67502;SHT30;54349;52.528;19.760;2023-02-28T03:08:10;21.06;36.77
67502;SHT30;54349;52.528;19.760;2023-02-28T03:19:02;20.96;36.68
67502;SHT30;54349;52.528;19.760;2023-02-28T03:21:48;20.94;36.67
67502;SHT30;54349;52.528;19.760;2023-02-28T03:24:57;20.91;36.68
67502;SHT30;54349;52.528;19.760;2023-02-28T03:27:58;20.89;36.64
67502;SHT30;54349;52.528;19.760;2023-02-28T03:30:36;20.87;36.62
67502;SHT30;54349;52.528;19.760;2023-02-28T03:33:21;20.84;36.61
67502;SHT30;54349;52.528;19.760;2023-02-28T03:35:59;20.83;36.59
67502;SHT30;54349;52.528;19.760;2023-02-28T03:38:38;20.80;36.59
67502;SHT30;54349;52.528;19.760;2023-02-28T03:41:14;20.79;36.57
67502;SHT30;54349;52.528;19.760;2023-02-28T03:44:10;20.77;36.51
67502;SHT30;54349;52.528;19.760;2023-02-28T03:47:14;20.75;36.52
67502;SHT30;54349;52.528;19.760;2023-02-28T03:49:53;20.73;36.52
67502;SHT30;54349;52.528;19.760;2023-02-28T03:52:35;20.71;36.50
67502;SHT30;54349;52.528;19.760;2023-02-28T03:55:13;20.69;36.50
67502;SHT30;54349;52.528;19.760;2023-02-28T04:00:48;20.64;36.32
67502;SHT30;54349;52.528;19.760;2023-02-28T04:03:36;20.59;36.20
67502;SHT30;54349;52.528;19.760;2023-02-28T04:06:07;20.55;36.16
67502;SHT30;54349;52.528;19.760;2023-02-28T04:08:43;20.50;36.11
67502;SHT30;54349;52.528;19.760;2023-02-28T04:11:17;20.47;36.08
67502;SHT30;54349;52.528;19.760;2023-02-28T04:13:48;20.45;36.01
67502;SHT30;54349;52.528;19.760;2023-02-28T04:16:16;20.41;35.91
67502;SHT30;54349;52.528;19.760;2023-02-28T04:19:04;20.37;35.90
67502;SHT30;54349;52.528;19.760;2023-02-28T04:21:39;20.34;35.92
67502;SHT30;54349;52.528;19.760;2023-02-28T04:24:11;20.32;35.91
67502;SHT30;54349;52.528;19.760;2023-02-28T04:26:43;20.30;35.92
67502;SHT30;54349;52.528;19.760;2023-02-28T04:29:29;20.29;35.93
67502;SHT30;54349;52.528;19.760;2023-02-28T04:32:02;20.27;35.78
67502;SHT30;54349;52.528;19.760;2023-02-28T04:34:31;20.26;35.70
67502;SHT30;54349;52.528;19.760;2023-02-28T04:37:00;20.24;35.64
67502;SHT30;54349;52.528;19.760;2023-02-28T04:39:40;20.26;35.58
67502;SHT30;54349;52.528;19.760;2023-02-28T04:42:10;20.30;35.51
67502;SHT30;54349;52.528;19.760;2023-02-28T04:44:39;20.38;35.38
67502;SHT30;54349;52.528;19.760;2023-02-28T04:47:07;20.47;35.22
67502;SHT30;54349;52.528;19.760;2023-02-28T04:49:35;20.57;35.04
67502;SHT30;54349;52.528;19.760;2023-02-28T04:52:03;20.64;34.90
67502;SHT30;54349;52.528;19.760;2023-02-28T04:54:31;20.74;34.69
67502;SHT30;54349;52.528;19.760;2023-02-28T04:57:00;20.82;34.54
67502;SHT30;54349;52.528;19.760;2023-02-28T04:59:29;20.88;34.51
67502;SHT30;54349;52.528;19.760;2023-02-28T05:01:57;20.94;34.39
67502;SHT30;54349;52.528;19.760;2023-02-28T05:04:25;20.99;34.24
67502;SHT30;54349;52.528;19.760;2023-02-28T05:06:53;21.05;34.16
67502;SHT30;54349;52.528;19.760;2023-02-28T05:09:22;21.15;34.02
67502;SHT30;54349;52.528;19.760;2023-02-28T05:11:51;21.23;33.88
67502;SHT30;54349;52.528;19.760;2023-02-28T05:14:19;21.29;33.77
67502;SHT30;54349;52.528;19.760;2023-02-28T05:16:47;21.37;33.70
67502;SHT30;54349;52.528;19.760;2023-02-28T05:19:15;21.42;33.62
67502;SHT30;54349;52.528;19.760;2023-02-28T05:21:48;21.49;33.45
67502;SHT30;54349;52.528;19.760;2023-02-28T05:24:20;21.58;33.36
67502;SHT30;54349;52.528;19.760;2023-02-28T05:26:52;21.61;33.29
67502;SHT30;54349;52.528;19.760;2023-02-28T05:29:22;21.64;33.21
67502;SHT30;54349;52.528;19.760;2023-02-28T05:31:50;21.71;33.15
67502;SHT30;54349;52.528;19.760;2023-02-28T05:34:18;21.79;33.20
67502;SHT30;54349;52.528;19.760;2023-02-28T05:36:46;21.84;33.23
67502;SHT30;54349;52.528;19.760;2023-02-28T05:39:14;21.88;33.21
67502;SHT30;54349;52.528;19.760;2023-02-28T05:41:43;21.96;33.16
67502;SHT30;54349;52.528;19.760;2023-02-28T05:44:11;22.01;32.93
67502;SHT30;54349;52.528;19.760;2023-02-28T05:46:40;22.03;32.87
67502;SHT30;54349;52.528;19.760;2023-02-28T05:49:08;22.07;32.76
67502;SHT30;54349;52.528;19.760;2023-02-28T05:51:36;22.13;32.74
67502;SHT30;54349;52.528;19.760;2023-02-28T05:54:07;22.15;32.70
67502;SHT30;54349;52.528;19.760;2023-02-28T05:56:35;22.20;32.57
67502;SHT30;54349;52.528;19.760;2023-02-28T05:59:06;22.25;32.54
67502;SHT30;54349;52.528;19.760;2023-02-28T06:04:16;22.23;32.45
67502;SHT30;54349;52.528;19.760;2023-02-28T06:06:58;22.27;32.38
67502;SHT30;54349;52.528;19.760;2023-02-28T06:09:27;22.28;32.34
67502;SHT30;54349;52.528;19.760;2023-02-28T06:11:57;22.26;32.38
67502;SHT30;54349;52.528;19.760;2023-02-28T06:14:27;22.24;32.36
67502;SHT30;54349;52.528;19.760;2023-02-28T06:16:55;22.25;32.29
67502;SHT30;54349;52.528;19.760;2023-02-28T06:19:25;22.29;32.22
67502;SHT30;54349;52.528;19.760;2023-02-28T06:21:55;22.35;32.27
67502;SHT30;54349;52.528;19.760;2023-02-28T06:24:25;22.38;32.28
67502;SHT30;54349;52.528;19.760;2023-02-28T06:26:55;22.37;32.21
67502;SHT30;54349;52.528;19.760;2023-02-28T06:29:25;22.38;32.17
67502;SHT30;54349;52.528;19.760;2023-02-28T06:31:53;22.40;32.10
67502;SHT30;54349;52.528;19.760;2023-02-28T06:34:21;22.42;32.09
67502;SHT30;54349;52.528;19.760;2023-02-28T06:36:50;22.45;32.01
67502;SHT30;54349;52.528;19.760;2023-02-28T06:39:19;22.44;32.04
67502;SHT30;54349;52.528;19.760;2023-02-28T06:41:47;22.43;31.96
67502;SHT30;54349;52.528;19.760;2023-02-28T06:44:22;22.45;31.93
67502;SHT30;54349;52.528;19.760;2023-02-28T06:46:51;22.41;32.06
67502;SHT30;54349;52.528;19.760;2023-02-28T06:49:19;22.42;32.01
67502;SHT30;54349;52.528;19.760;2023-02-28T06:51:48;22.42;32.02
67502;SHT30;54349;52.528;19.760;2023-02-28T06:54:16;22.39;32.35
67502;SHT30;54349;52.528;19.760;2023-02-28T06:56:44;22.36;32.62
67502;SHT30;54349;52.528;19.760;2023-02-28T06:59:12;22.38;32.88
67502;SHT30;54349;52.528;19.760;2023-02-28T07:01:41;22.40;33.62
67502;SHT30;54349;52.528;19.760;2023-02-28T07:04:09;22.33;34.22
67502;SHT30;54349;52.528;19.760;2023-02-28T07:06:37;22.34;34.66
67502;SHT30;54349;52.528;19.760;2023-02-28T07:09:07;22.38;34.70
67502;SHT30;54349;52.528;19.760;2023-02-28T07:11:35;22.38;34.60
67502;SHT30;54349;52.528;19.760;2023-02-28T07:14:04;22.43;34.55
67502;SHT30;54349;52.528;19.760;2023-02-28T07:16:32;22.48;34.51
67502;SHT30;54349;52.528;19.760;2023-02-28T07:19:01;22.50;34.40
67502;SHT30;54349;52.528;19.760;2023-02-28T07:21:30;22.55;34.30
67502;SHT30;54349;52.528;19.760;2023-02-28T07:23:59;22.60;34.25
67502;SHT30;54349;52.528;19.760;2023-02-28T07:26:28;22.66;34.27
67502;SHT30;54349;52.528;19.760;2023-02-28T07:28:56;22.70;34.12
67502;SHT30;54349;52.528;19.760;2023-02-28T07:31:25;22.72;34.09
67502;SHT30;54349;52.528;19.760;2023-02-28T07:33:53;22.75;34.05
67502;SHT30;54349;52.528;19.760;2023-02-28T07:36:21;22.80;34.10
67502;SHT30;54349;52.528;19.760;2023-02-28T07:38:49;22.83;34.01
67502;SHT30;54349;52.528;19.760;2023-02-28T07:41:19;22.85;33.98
67502;SHT30;54349;52.528;19.760;2023-02-28T07:43:49;22.87;34.01
67502;SHT30;54349;52.528;19.760;2023-02-28T07:46:19;22.90;33.95
67502;SHT30;54349;52.528;19.760;2023-02-28T07:48:48;22.92;33.81
67502;SHT30;54349;52.528;19.760;2023-02-28T07:51:17;22.92;33.78
67502;SHT30;54349;52.528;19.760;2023-02-28T07:53:47;22.94;33.79
67502;SHT30;54349;52.528;19.760;2023-02-28T07:56:16;22.95;33.75
67502;SHT30;54349;52.528;19.760;2023-02-28T07:58:45;22.96;33.68
67502;SHT30;54349;52.528;19.760;2023-02-28T08:01:13;22.99;33.75
67502;SHT30;54349;52.528;19.760;2023-02-28T08:03:42;22.98;33.82
67502;SHT30;54349;52.528;19.760;2023-02-28T08:06:16;22.91;34.19
67502;SHT30;54349;52.528;19.760;2023-02-28T08:08:50;22.83;34.47
67502;SHT30;54349;52.528;19.760;2023-02-28T08:11:20;22.79;34.58
67502;SHT30;54349;52.528;19.760;2023-02-28T08:13:49;22.80;34.70
67502;SHT30;54349;52.528;19.760;2023-02-28T08:16:17;22.83;34.69
67502;SHT30;54349;52.528;19.760;2023-02-28T08:18:50;22.85;34.56
67502;SHT30;54349;52.528;19.760;2023-02-28T08:21:20;22.86;34.52
67502;SHT30;54349;52.528;19.760;2023-02-28T08:23:49;22.86;34.65
67502;SHT30;54349;52.528;19.760;2023-02-28T08:26:19;22.88;34.73
67502;SHT30;54349;52.528;19.760;2023-02-28T08:28:48;22.88;34.70
67502;SHT30;54349;52.528;19.760;2023-02-28T08:31:17;22.89;34.66
67502;SHT30;54349;52.528;19.760;2023-02-28T08:33:46;22.91;34.59
67502;SHT30;54349;52.528;19.760;2023-02-28T08:36:20;22.93;34.66
67502;SHT30;54349;52.528;19.760;2023-02-28T08:38:49;22.95;34.63
67502;SHT30;54349;52.528;19.760;2023-02-28T08:41:17;22.97;34.54
67502;SHT30;54349;52.528;19.760;2023-02-28T08:43:46;22.96;34.46
67502;SHT30;54349;52.528;19.760;2023-02-28T08:46:14;22.95;34.46
67502;SHT30;54349;52.528;19.760;2023-02-28T08:48:43;22.94;34.39
67502;SHT30;54349;52.528;19.760;2023-02-28T08:51:15;22.90;34.24
67502;SHT30;54349;52.528;19.760;2023-02-28T08:53:49;22.88;34.35
67502;SHT30;54349;52.528;19.760;2023-02-28T08:56:17;22.88;34.34
67502;SHT30;54349;52.528;19.760;2023-02-28T08:58:47;22.88;34.33
67502;SHT30;54349;52.528;19.760;2023-02-28T09:01:19;22.87;34.39
67502;SHT30;54349;52.528;19.760;2023-02-28T09:03:51;22.88;34.45
67502;SHT30;54349;52.528;19.760;2023-02-28T09:06:22;22.90;34.37
67502;SHT30;54349;52.528;19.760;2023-02-28T09:08:52;22.90;34.41
67502;SHT30;54349;52.528;19.760;2023-02-28T09:11:26;22.90;34.44
67502;SHT30;54349;52.528;19.760;2023-02-28T09:13:55;22.92;34.44
67502;SHT30;54349;52.528;19.760;2023-02-28T09:16:26;22.91;34.23
67502;SHT30;54349;52.528;19.760;2023-02-28T09:18:55;22.87;34.30
67502;SHT30;54349;52.528;19.760;2023-02-28T09:21:25;22.86;34.35
67502;SHT30;54349;52.528;19.760;2023-02-28T09:23:55;22.88;34.41
67502;SHT30;54349;52.528;19.760;2023-02-28T09:26:25;22.91;34.41
67502;SHT30;54349;52.528;19.760;2023-02-28T09:29:09;22.92;34.64
67502;SHT30;54349;52.528;19.760;2023-02-28T09:31:38;22.94;34.97
67502;SHT30;54349;52.528;19.760;2023-02-28T09:34:06;22.95;35.06
67502;SHT30;54349;52.528;19.760;2023-02-28T09:36:35;22.95;34.87
67502;SHT30;54349;52.528;19.760;2023-02-28T09:39:12;22.92;34.76
67502;SHT30;54349;52.528;19.760;2023-02-28T09:41:47;22.90;34.75
67502;SHT30;54349;52.528;19.760;2023-02-28T09:46:58;22.93;34.72
67502;SHT30;54349;52.528;19.760;2023-02-28T09:49:40;22.91;34.58
67502;SHT30;54349;52.528;19.760;2023-02-28T09:52:21;22.90;34.62
67502;SHT30;54349;52.528;19.760;2023-02-28T09:55:11;22.93;34.62
67502;SHT30;54349;52.528;19.760;2023-02-28T09:57:55;22.94;34.60
67502;SHT30;54349;52.528;19.760;2023-02-28T10:00:32;22.97;34.68
67502;SHT30;54349;52.528;19.760;2023-02-28T10:06:11;23.05;34.50
67502;SHT30;54349;52.528;19.760;2023-02-28T10:08:52;23.02;34.71
67502;SHT30;54349;52.528;19.760;2023-02-28T10:11:34;23.02;34.86
67502;SHT30;54349;52.528;19.760;2023-02-28T10:14:15;23.06;34.91
67502;SHT30;54349;52.528;19.760;2023-02-28T10:19:42;23.13;35.10
67502;SHT30;54349;52.528;19.760;2023-02-28T10:22:49;23.15;35.02
67502;SHT30;54349;52.528;19.760;2023-02-28T10:25:26;23.17;34.92
67502;SHT30;54349;52.528;19.760;2023-02-28T10:28:10;23.16;34.88
67502;SHT30;54349;52.528;19.760;2023-02-28T10:30:49;23.17;34.95
67502;SHT30;54349;52.528;19.760;2023-02-28T10:33:24;23.18;34.94
67502;SHT30;54349;52.528;19.760;2023-02-28T10:36:04;23.21;35.07
67502;SHT30;54349;52.528;19.760;2023-02-28T10:38:38;23.24;35.22
67502;SHT30;54349;52.528;19.760;2023-02-28T10:41:09;23.26;35.30
67502;SHT30;54349;52.528;19.760;2023-02-28T10:43:44;23.29;35.30
67502;SHT30;54349;52.528;19.760;2023-02-28T10:46:15;23.31;35.32
67502;SHT30;54349;52.528;19.760;2023-02-28T10:49:00;23.32;34.87
67502;SHT30;54349;52.528;19.760;2023-02-28T10:51:38;23.29;34.81
67502;SHT30;54349;52.528;19.760;2023-02-28T10:54:16;23.28;34.82
67502;SHT30;54349;52.528;19.760;2023-02-28T10:57:14;23.29;34.74
67502;SHT30;54349;52.528;19.760;2023-02-28T10:59:45;23.28;34.50
67502;SHT30;54349;52.528;19.760;2023-02-28T11:02:29;23.27;34.40
67502;SHT30;54349;52.528;19.760;2023-02-28T11:05:22;23.26;34.27
67502;SHT30;54349;52.528;19.760;2023-02-28T11:07:54;23.27;34.17
67502;SHT30;54349;52.528;19.760;2023-02-28T11:10:39;23.25;34.30
67502;SHT30;54349;52.528;19.760;2023-02-28T11:13:25;23.28;34.51
67502;SHT30;54349;52.528;19.760;2023-02-28T11:16:05;23.30;34.59
67502;SHT30;54349;52.528;19.760;2023-02-28T11:18:40;23.33;34.82
67502;SHT30;54349;52.528;19.760;2023-02-28T11:21:16;23.36;34.77
67502;SHT30;54349;52.528;19.760;2023-02-28T11:23:58;23.37;34.51
67502;SHT30;54349;52.528;19.760;2023-02-28T11:26:35;23.35;34.38
67502;SHT30;54349;52.528;19.760;2023-02-28T11:34:41;23.26;34.58
67502;SHT30;54349;52.528;19.760;2023-02-28T11:37:13;23.24;34.89
67502;SHT30;54349;52.528;19.760;2023-02-28T11:39:47;23.21;34.80
67502;SHT30;54349;52.528;19.760;2023-02-28T11:45:02;23.18;34.79
67502;SHT30;54349;52.528;19.760;2023-02-28T11:56:44;23.22;35.79
67502;SHT30;54349;52.528;19.760;2023-02-28T11:59:41;23.25;35.79
67502;SHT30;54349;52.528;19.760;2023-02-28T12:02:57;23.31;36.04
67502;SHT30;54349;52.528;19.760;2023-02-28T12:28:06;23.67;35.26
67502;SHT30;54349;52.528;19.760;2023-02-28T12:30:49;23.70;35.16
67502;SHT30;54349;52.528;19.760;2023-02-28T12:33:42;23.73;35.15
67502;SHT30;54349;52.528;19.760;2023-02-28T12:36:20;23.75;35.12
67502;SHT30;54349;52.528;19.760;2023-02-28T12:39:08;23.77;35.07
67502;SHT30;54349;52.528;19.760;2023-02-28T12:41:54;23.80;34.96
67502;SHT30;54349;52.528;19.760;2023-02-28T12:47:14;23.86;34.92
67502;SHT30;54349;52.528;19.760;2023-02-28T12:49:51;23.88;34.86
67502;SHT30;54349;52.528;19.760;2023-02-28T12:55:40;23.93;34.79
67502;SHT30;54349;52.528;19.760;2023-02-28T12:58:47;23.96;34.76
67502;SHT30;54349;52.528;19.760;2023-02-28T13:09:33;24.04;34.63
67502;SHT30;54349;52.528;19.760;2023-02-28T13:12:11;24.05;34.60
67502;SHT30;54349;52.528;19.760;2023-02-28T13:14:45;24.07;34.51
67502;SHT30;54349;52.528;19.760;2023-02-28T13:17:20;24.08;34.46
67502;SHT30;54349;52.528;19.760;2023-02-28T13:24:55;24.22;34.36
67502;SHT30;54349;52.528;19.760;2023-02-28T13:27:59;24.26;34.30
67502;SHT30;54349;52.528;19.760;2023-02-28T13:38:56;24.36;34.02
67502;SHT30;54349;52.528;19.760;2023-02-28T13:41:40;24.37;33.77
67502;SHT30;54349;52.528;19.760;2023-02-28T14:00:39;24.39;34.02
67502;SHT30;54349;52.528;19.760;2023-02-28T14:06:26;24.40;34.08
67502;SHT30;54349;52.528;19.760;2023-02-28T14:09:01;24.39;34.10
67502;SHT30;54349;52.528;19.760;2023-02-28T14:11:56;24.38;34.12
67502;SHT30;54349;52.528;19.760;2023-02-28T14:15:23;24.36;34.28
67502;SHT30;54349;52.528;19.760;2023-02-28T14:17:16;24.35;34.44
67502;SHT30;54349;52.528;19.760;2023-02-28T14:19:46;24.35;34.13
67502;SHT30;54349;52.528;19.760;2023-02-28T14:28:20;24.35;34.54
67502;SHT30;54349;52.528;19.760;2023-02-28T14:34:05;24.34;34.52
67502;SHT30;54349;52.528;19.760;2023-02-28T14:36:54;24.36;34.56
67502;SHT30;54349;52.528;19.760;2023-02-28T14:39:30;24.34;34.24
67502;SHT30;54349;52.528;19.760;2023-02-28T14:42:00;24.33;34.45
67502;SHT30;54349;52.528;19.760;2023-02-28T14:44:32;24.33;34.72
67502;SHT30;54349;52.528;19.760;2023-02-28T14:47:04;24.33;34.44
67502;SHT30;54349;52.528;19.760;2023-02-28T14:49:35;24.32;34.90
67502;SHT30;54349;52.528;19.760;2023-02-28T14:52:15;24.33;35.31
67502;SHT30;54349;52.528;19.760;2023-02-28T14:55:00;24.32;35.45
67502;SHT30;54349;52.528;19.760;2023-02-28T14:57:41;24.31;35.16
67502;SHT30;54349;52.528;19.760;2023-02-28T15:02:54;24.30;34.69
67502;SHT30;54349;52.528;19.760;2023-02-28T15:05:31;24.29;34.89
67502;SHT30;54349;52.528;19.760;2023-02-28T15:08:06;24.29;34.92
67502;SHT30;54349;52.528;19.760;2023-02-28T15:10:54;24.26;34.72
67502;SHT30;54349;52.528;19.760;2023-02-28T15:13:25;24.24;34.76
67502;SHT30;54349;52.528;19.760;2023-02-28T15:16:04;24.23;34.87
67502;SHT30;54349;52.528;19.760;2023-02-28T15:19:02;24.23;35.16
67502;SHT30;54349;52.528;19.760;2023-02-28T15:21:41;24.22;35.43
67502;SHT30;54349;52.528;19.760;2023-02-28T15:26:54;24.24;36.37
67502;SHT30;54349;52.528;19.760;2023-02-28T15:29:27;24.25;37.18
67502;SHT30;54349;52.528;19.760;2023-02-28T15:32:05;24.27;37.61
67502;SHT30;54349;52.528;19.760;2023-02-28T15:34:37;24.28;37.83
67502;SHT30;54349;52.528;19.760;2023-02-28T15:40:11;24.30;38.73
67502;SHT30;54349;52.528;19.760;2023-02-28T15:42:57;24.31;39.18
67502;SHT30;54349;52.528;19.760;2023-02-28T15:46:11;24.32;39.51
67502;SHT30;54349;52.528;19.760;2023-02-28T15:48:50;24.32;39.02
67502;SHT30;54349;52.528;19.760;2023-02-28T15:51:24;24.29;38.19
67502;SHT30;54349;52.528;19.760;2023-02-28T15:54:00;24.25;38.09
67502;SHT30;54349;52.528;19.760;2023-02-28T15:56:43;24.22;37.40
67502;SHT30;54349;52.528;19.760;2023-02-28T15:59:16;24.17;36.60
67502;SHT30;54349;52.528;19.760;2023-02-28T16:04:54;24.04;35.93
67502;SHT30;54349;52.528;19.760;2023-02-28T16:07:30;23.99;36.12
67502;SHT30;54349;52.528;19.760;2023-02-28T16:09:59;23.95;35.47
67502;SHT30;54349;52.528;19.760;2023-02-28T16:12:29;23.87;35.10
67502;SHT30;54349;52.528;19.760;2023-02-28T16:15:03;23.80;35.09
67502;SHT30;54349;52.528;19.760;2023-02-28T16:17:43;23.75;34.91
67502;SHT30;54349;52.528;19.760;2023-02-28T16:20:19;23.69;34.50
67502;SHT30;54349;52.528;19.760;2023-02-28T16:22:50;23.62;34.27
67502;SHT30;54349;52.528;19.760;2023-02-28T16:25:20;23.54;34.34
67502;SHT30;54349;52.528;19.760;2023-02-28T16:27:57;23.50;34.53
67502;SHT30;54349;52.528;19.760;2023-02-28T16:30:28;23.48;34.53
67502;SHT30;54349;52.528;19.760;2023-02-28T16:32:59;23.45;34.12
67502;SHT30;54349;52.528;19.760;2023-02-28T16:35:27;23.40;34.11
67502;SHT30;54349;52.528;19.760;2023-02-28T16:37:55;23.36;34.36
67502;SHT30;54349;52.528;19.760;2023-02-28T16:40:24;23.36;34.69
67502;SHT30;54349;52.528;19.760;2023-02-28T16:42:57;23.34;34.50
67502;SHT30;54349;52.528;19.760;2023-02-28T16:45:28;23.33;34.31
67502;SHT30;54349;52.528;19.760;2023-02-28T16:47:57;23.29;34.12
67502;SHT30;54349;52.528;19.760;2023-02-28T16:50:26;23.26;34.32
67502;SHT30;54349;52.528;19.760;2023-02-28T16:52:57;23.25;34.07
67502;SHT30;54349;52.528;19.760;2023-02-28T16:55:25;23.23;33.81
67502;SHT30;54349;52.528;19.760;2023-02-28T16:57:59;23.18;33.75
67502;SHT30;54349;52.528;19.760;2023-02-28T17:00:29;23.17;33.82
67502;SHT30;54349;52.528;19.760;2023-02-28T17:03:00;23.15;33.65
67502;SHT30;54349;52.528;19.760;2023-02-28T17:05:33;23.13;33.59
67502;SHT30;54349;52.528;19.760;2023-02-28T17:08:08;23.13;33.74
67502;SHT30;54349;52.528;19.760;2023-02-28T17:10:37;23.12;33.57
67502;SHT30;54349;52.528;19.760;2023-02-28T17:13:05;23.11;33.54
67502;SHT30;54349;52.528;19.760;2023-02-28T17:15:42;23.10;33.42
67502;SHT30;54349;52.528;19.760;2023-02-28T17:18:14;23.10;33.40
67502;SHT30;54349;52.528;19.760;2023-02-28T17:20:46;23.09;33.42
67502;SHT30;54349;52.528;19.760;2023-02-28T17:23:15;23.10;33.36
67502;SHT30;54349;52.528;19.760;2023-02-28T17:25:44;23.10;33.24
67502;SHT30;54349;52.528;19.760;2023-02-28T17:28:24;23.09;33.25
67502;SHT30;54349;52.528;19.760;2023-02-28T17:30:52;23.09;33.19
67502;SHT30;54349;52.528;19.760;2023-02-28T17:33:20;23.09;33.22
67502;SHT30;54349;52.528;19.760;2023-02-28T17:35:49;23.08;33.11
67502;SHT30;54349;52.528;19.760;2023-02-28T17:38:18;23.06;33.03
67502;SHT30;54349;52.528;19.760;2023-02-28T17:40:47;23.04;32.98
67502;SHT30;54349;52.528;19.760;2023-02-28T17:43:16;23.05;33.01
67502;SHT30;54349;52.528;19.760;2023-02-28T17:45:44;23.04;32.87
67502;SHT30;54349;52.528;19.760;2023-02-28T17:48:12;23.02;32.84
67502;SHT30;54349;52.528;19.760;2023-02-28T17:50:41;22.99;32.89
67502;SHT30;54349;52.528;19.760;2023-02-28T17:53:09;23.00;32.87
67502;SHT30;54349;52.528;19.760;2023-02-28T17:55:38;22.99;32.77
67502;SHT30;54349;52.528;19.760;2023-02-28T17:58:08;22.98;32.78
67502;SHT30;54349;52.528;19.760;2023-02-28T18:00:41;22.98;32.71
67502;SHT30;54349;52.528;19.760;2023-02-28T18:03:09;22.96;32.65
67502;SHT30;54349;52.528;19.760;2023-02-28T18:05:40;22.93;32.51
67502;SHT30;54349;52.528;19.760;2023-02-28T18:08:10;22.90;32.54
67502;SHT30;54349;52.528;19.760;2023-02-28T18:10:41;22.88;32.56
67502;SHT30;54349;52.528;19.760;2023-02-28T18:13:09;22.87;32.58
67502;SHT30;54349;52.528;19.760;2023-02-28T18:15:40;22.88;32.45
67502;SHT30;54349;52.528;19.760;2023-02-28T18:18:08;22.86;32.41
67502;SHT30;54349;52.528;19.760;2023-02-28T18:20:36;22.84;32.54
67502;SHT30;54349;52.528;19.760;2023-02-28T18:23:05;22.87;32.58